RYR5XB EIDW-EGHQ
Flight info
| Callsign | RYR5XB |
|---|---|
| Flight time | 0h 43m |
| Altitude | 19000 |
| Route | PESIT2J PESIT DCT BAKUR N24 GUBJE DCT TIKCA |
| Aircraft | B738/M-SDE2E3FGHIRWXY/LB1 |
Departure
| Time | 2026-05-07 18:35 |
|---|---|
| Airport | Dublin Airport (EIDW) |
Arrival
| Time | 2026-05-07 19:19 |
|---|---|
| Airport | Cornwall Airport Newquay (EGHQ) |
| Time | Latitude | Longitude | Altitude | Speed | Heading |
|---|---|---|---|---|---|
| 2026-05-07 17:53 | 53.43102 | -6.24829 | 210 ft | 0 kts | 185° |
| 2026-05-07 18:26 | 53.43111 | -6.24828 | 210 ft | 3 kts | 185° |
| 2026-05-07 18:26 | 53.43131 | -6.24825 | 210 ft | 3 kts | 184° |
| 2026-05-07 18:26 | 53.43152 | -6.24822 | 210 ft | 3 kts | 182° |
| 2026-05-07 18:26 | 53.43172 | -6.24821 | 210 ft | 3 kts | 178° |
| 2026-05-07 18:27 | 53.43192 | -6.24824 | 210 ft | 3 kts | 167° |
| 2026-05-07 18:27 | 53.43209 | -6.24835 | 210 ft | 3 kts | 134° |
| 2026-05-07 18:27 | 53.43217 | -6.24854 | 219 ft | 3 kts | 108° |
| 2026-05-07 18:27 | 53.43220 | -6.24875 | 210 ft | 1 kts | 95° |
| 2026-05-07 18:28 | 53.43220 | -6.24876 | 210 ft | 0 kts | 95° |
| 2026-05-07 18:30 | 53.43219 | -6.24863 | 218 ft | 4 kts | 95° |
| 2026-05-07 18:30 | 53.43213 | -6.24766 | 219 ft | 12 kts | 95° |
| 2026-05-07 18:31 | 53.43195 | -6.24623 | 210 ft | 11 kts | 98° |
| 2026-05-07 18:31 | 53.43188 | -6.24492 | 210 ft | 11 kts | 95° |
| 2026-05-07 18:31 | 53.43233 | -6.24412 | 214 ft | 11 kts | 5° |
| 2026-05-07 18:31 | 53.43283 | -6.24405 | 215 ft | 0 kts | 5° |
| 2026-05-07 18:32 | 53.43291 | -6.24404 | 210 ft | 4 kts | 5° |
| 2026-05-07 18:32 | 53.43345 | -6.24442 | 215 ft | 10 kts | 297° |
| 2026-05-07 18:32 | 53.43371 | -6.24557 | 214 ft | 12 kts | 346° |
| 2026-05-07 18:33 | 53.43429 | -6.24556 | 213 ft | 7 kts | 4° |
| 2026-05-07 18:33 | 53.43477 | -6.24549 | 219 ft | 7 kts | 12° |
| 2026-05-07 18:33 | 53.43523 | -6.24556 | 216 ft | 8 kts | 298° |
| 2026-05-07 18:33 | 53.43526 | -6.24599 | 219 ft | 0 kts | 275° |
| 2026-05-07 18:34 | 53.43526 | -6.24603 | 219 ft | 3 kts | 275° |
| 2026-05-07 18:34 | 53.43545 | -6.24944 | 211 ft | 69 kts | 275° |
| 2026-05-07 18:35 | 53.43612 | -6.26186 | 211 ft | 141 kts | 275° |
| 2026-05-07 18:35 | 53.43728 | -6.27925 | 787 ft | 153 kts | 274° |
| 2026-05-07 18:35 | 53.43855 | -6.29696 | 1653 ft | 152 kts | 279° |
| 2026-05-07 18:35 | 53.44481 | -6.31160 | 2435 ft | 168 kts | 327° |
| 2026-05-07 18:36 | 53.45499 | -6.32338 | 2812 ft | 192 kts | 299° |
| 2026-05-07 18:36 | 53.46141 | -6.34322 | 3500 ft | 197 kts | 300° |
| 2026-05-07 18:36 | 53.46995 | -6.36183 | 4140 ft | 210 kts | 303° |
| 2026-05-07 18:36 | 53.47916 | -6.38307 | 4420 ft | 239 kts | 302° |
| 2026-05-07 18:37 | 53.48919 | -6.40707 | 4873 ft | 258 kts | 302° |
| 2026-05-07 18:37 | 53.49952 | -6.43210 | 5686 ft | 263 kts | 302° |
| 2026-05-07 18:37 | 53.50905 | -6.45853 | 6508 ft | 266 kts | 287° |
| 2026-05-07 18:37 | 53.51043 | -6.48894 | 7355 ft | 264 kts | 257° |
| 2026-05-07 18:38 | 53.50290 | -6.51671 | 8232 ft | 262 kts | 231° |
| 2026-05-07 18:38 | 53.48894 | -6.53617 | 8663 ft | 270 kts | 205° |
| 2026-05-07 18:38 | 53.47037 | -6.54254 | 9519 ft | 277 kts | 182° |
| 2026-05-07 18:38 | 53.45121 | -6.53708 | 10363 ft | 287 kts | 166° |
| 2026-05-07 18:39 | 53.43146 | -6.52590 | 10652 ft | 314 kts | 162° |
| 2026-05-07 18:39 | 53.41044 | -6.51269 | 11237 ft | 327 kts | 161° |
| 2026-05-07 18:39 | 53.38897 | -6.49933 | 12154 ft | 330 kts | 162° |
| 2026-05-07 18:39 | 53.36727 | -6.48636 | 13116 ft | 333 kts | 163° |
| 2026-05-07 18:40 | 53.34520 | -6.47355 | 14043 ft | 337 kts | 164° |
| 2026-05-07 18:40 | 53.32282 | -6.46071 | 14915 ft | 342 kts | 164° |
| 2026-05-07 18:40 | 53.30052 | -6.44636 | 15813 ft | 347 kts | 159° |
| 2026-05-07 18:40 | 53.27853 | -6.42959 | 16814 ft | 348 kts | 158° |
| 2026-05-07 18:41 | 53.25706 | -6.41267 | 17951 ft | 344 kts | 158° |
| 2026-05-07 18:41 | 53.23515 | -6.39536 | 18743 ft | 345 kts | 158° |
| 2026-05-07 18:41 | 53.21344 | -6.37829 | 18926 ft | 346 kts | 159° |
| 2026-05-07 18:41 | 53.19174 | -6.36135 | 18923 ft | 344 kts | 159° |
| 2026-05-07 18:42 | 53.17006 | -6.34451 | 18945 ft | 343 kts | 159° |
| 2026-05-07 18:42 | 53.14836 | -6.32773 | 18940 ft | 344 kts | 159° |
| 2026-05-07 18:42 | 53.12661 | -6.31096 | 18945 ft | 344 kts | 159° |
| 2026-05-07 18:42 | 53.10489 | -6.29424 | 18950 ft | 344 kts | 159° |
| 2026-05-07 18:43 | 53.08320 | -6.27757 | 18932 ft | 344 kts | 159° |
| 2026-05-07 18:43 | 53.06153 | -6.26093 | 18949 ft | 344 kts | 159° |
| 2026-05-07 18:43 | 53.03976 | -6.24423 | 18938 ft | 344 kts | 159° |
| 2026-05-07 18:43 | 53.01806 | -6.22759 | 18943 ft | 344 kts | 159° |
| 2026-05-07 18:44 | 52.99636 | -6.21098 | 18940 ft | 344 kts | 159° |
| 2026-05-07 18:44 | 52.97465 | -6.19438 | 18963 ft | 343 kts | 159° |
| 2026-05-07 18:44 | 52.95294 | -6.17781 | 18957 ft | 344 kts | 159° |
| 2026-05-07 18:44 | 52.93128 | -6.16122 | 18956 ft | 344 kts | 159° |
| 2026-05-07 18:45 | 52.90956 | -6.14453 | 18968 ft | 344 kts | 159° |
| 2026-05-07 18:45 | 52.88788 | -6.12785 | 18967 ft | 344 kts | 159° |
| 2026-05-07 18:45 | 52.86617 | -6.11117 | 18956 ft | 344 kts | 159° |
| 2026-05-07 18:45 | 52.84442 | -6.09447 | 18954 ft | 344 kts | 158° |
| 2026-05-07 18:46 | 52.82274 | -6.07784 | 18956 ft | 344 kts | 158° |
| 2026-05-07 18:46 | 52.80106 | -6.06124 | 18964 ft | 344 kts | 158° |
| 2026-05-07 18:46 | 52.77928 | -6.04458 | 18967 ft | 344 kts | 158° |
| 2026-05-07 18:46 | 52.75759 | -6.02801 | 18971 ft | 344 kts | 158° |
| 2026-05-07 18:47 | 52.73588 | -6.01144 | 18976 ft | 344 kts | 158° |
| 2026-05-07 18:47 | 52.71410 | -5.99484 | 18975 ft | 344 kts | 158° |
| 2026-05-07 18:47 | 52.69236 | -5.97829 | 18973 ft | 345 kts | 158° |
| 2026-05-07 18:47 | 52.67061 | -5.96174 | 18978 ft | 345 kts | 158° |
| 2026-05-07 18:48 | 52.64884 | -5.94520 | 18977 ft | 345 kts | 158° |
| 2026-05-07 18:48 | 52.62703 | -5.92865 | 18976 ft | 345 kts | 158° |
| 2026-05-07 18:48 | 52.60518 | -5.91209 | 18967 ft | 345 kts | 158° |
| 2026-05-07 18:48 | 52.58342 | -5.89561 | 18977 ft | 345 kts | 158° |
| 2026-05-07 18:49 | 52.56162 | -5.87911 | 18980 ft | 345 kts | 158° |
| 2026-05-07 18:49 | 52.54015 | -5.86290 | 18986 ft | 345 kts | 158° |
| 2026-05-07 18:49 | 52.51773 | -5.84946 | 18983 ft | 342 kts | 168° |
| 2026-05-07 18:49 | 52.49465 | -5.84005 | 18986 ft | 341 kts | 169° |
| 2026-05-07 18:50 | 52.47146 | -5.83123 | 18986 ft | 342 kts | 169° |
| 2026-05-07 18:50 | 52.44829 | -5.82249 | 18984 ft | 342 kts | 169° |
| 2026-05-07 18:50 | 52.42517 | -5.81367 | 18990 ft | 342 kts | 169° |
| 2026-05-07 18:50 | 52.40204 | -5.80474 | 18987 ft | 342 kts | 169° |
| 2026-05-07 18:51 | 52.37887 | -5.79570 | 18979 ft | 342 kts | 169° |
| 2026-05-07 18:51 | 52.35579 | -5.78663 | 18984 ft | 342 kts | 169° |
| 2026-05-07 18:51 | 52.33262 | -5.77749 | 18990 ft | 342 kts | 169° |
| 2026-05-07 18:51 | 52.30946 | -5.76833 | 18991 ft | 342 kts | 169° |
| 2026-05-07 18:52 | 52.28639 | -5.75921 | 18991 ft | 342 kts | 169° |
| 2026-05-07 18:52 | 52.26327 | -5.75006 | 18992 ft | 342 kts | 169° |
| 2026-05-07 18:52 | 52.24015 | -5.74092 | 18997 ft | 342 kts | 169° |
| 2026-05-07 18:52 | 52.21708 | -5.73181 | 18997 ft | 342 kts | 169° |
| 2026-05-07 18:53 | 52.19399 | -5.72270 | 18994 ft | 342 kts | 169° |
| 2026-05-07 18:53 | 52.17091 | -5.71360 | 18996 ft | 342 kts | 169° |
| 2026-05-07 18:53 | 52.14774 | -5.70447 | 18997 ft | 342 kts | 169° |
| 2026-05-07 18:53 | 52.12466 | -5.69539 | 18993 ft | 341 kts | 168° |
| 2026-05-07 18:54 | 52.10155 | -5.68631 | 19000 ft | 341 kts | 168° |
| 2026-05-07 18:54 | 52.07849 | -5.67725 | 19003 ft | 341 kts | 168° |
| 2026-05-07 18:54 | 52.05547 | -5.66822 | 19004 ft | 341 kts | 168° |
| 2026-05-07 18:54 | 52.03236 | -5.65917 | 19003 ft | 341 kts | 168° |
| 2026-05-07 18:55 | 52.00935 | -5.65016 | 19002 ft | 341 kts | 168° |
| 2026-05-07 18:55 | 51.98631 | -5.64116 | 19003 ft | 341 kts | 168° |
| 2026-05-07 18:55 | 51.96321 | -5.63214 | 19002 ft | 341 kts | 168° |
| 2026-05-07 18:55 | 51.94017 | -5.62315 | 19004 ft | 341 kts | 168° |
| 2026-05-07 18:56 | 51.91711 | -5.61416 | 19003 ft | 341 kts | 168° |
| 2026-05-07 18:56 | 51.89401 | -5.60517 | 19003 ft | 341 kts | 168° |
| 2026-05-07 18:56 | 51.87097 | -5.59621 | 19002 ft | 341 kts | 168° |
| 2026-05-07 18:56 | 51.84791 | -5.58725 | 19004 ft | 341 kts | 168° |
| 2026-05-07 18:57 | 51.82482 | -5.57828 | 19002 ft | 341 kts | 168° |
| 2026-05-07 18:57 | 51.80183 | -5.56937 | 19006 ft | 341 kts | 168° |
| 2026-05-07 18:57 | 51.77908 | -5.56056 | 19005 ft | 341 kts | 168° |
| 2026-05-07 18:57 | 51.75568 | -5.55151 | 19006 ft | 341 kts | 168° |
| 2026-05-07 18:58 | 51.73298 | -5.54273 | 19006 ft | 341 kts | 168° |
| 2026-05-07 18:58 | 51.70960 | -5.53371 | 19006 ft | 341 kts | 168° |
| 2026-05-07 18:58 | 51.68692 | -5.52488 | 19006 ft | 341 kts | 168° |
| 2026-05-07 18:58 | 51.66387 | -5.51563 | 19000 ft | 340 kts | 168° |
| 2026-05-07 18:59 | 51.64089 | -5.50651 | 19003 ft | 340 kts | 168° |
| 2026-05-07 18:59 | 51.61792 | -5.49746 | 19006 ft | 340 kts | 168° |
| 2026-05-07 18:59 | 51.59506 | -5.48849 | 19006 ft | 340 kts | 168° |
| 2026-05-07 18:59 | 51.57192 | -5.47943 | 19006 ft | 340 kts | 168° |
| 2026-05-07 19:00 | 51.54894 | -5.47045 | 19004 ft | 338 kts | 168° |
| 2026-05-07 19:00 | 51.52621 | -5.46155 | 18763 ft | 335 kts | 168° |
| 2026-05-07 19:00 | 51.50368 | -5.45273 | 18500 ft | 331 kts | 168° |
| 2026-05-07 19:00 | 51.48132 | -5.44400 | 17986 ft | 332 kts | 168° |
| 2026-05-07 19:01 | 51.45886 | -5.43528 | 17525 ft | 331 kts | 168° |
| 2026-05-07 19:01 | 51.43659 | -5.42667 | 17116 ft | 327 kts | 168° |
| 2026-05-07 19:01 | 51.41453 | -5.41822 | 16727 ft | 324 kts | 168° |
| 2026-05-07 19:01 | 51.39269 | -5.40990 | 16354 ft | 321 kts | 168° |
| 2026-05-07 19:02 | 51.37108 | -5.40170 | 15965 ft | 318 kts | 168° |
| 2026-05-07 19:02 | 51.34962 | -5.39361 | 15587 ft | 316 kts | 168° |
| 2026-05-07 19:02 | 51.32823 | -5.38559 | 15207 ft | 314 kts | 168° |
| 2026-05-07 19:02 | 51.30703 | -5.37767 | 14836 ft | 312 kts | 168° |
| 2026-05-07 19:03 | 51.28596 | -5.36986 | 14457 ft | 311 kts | 168° |
| 2026-05-07 19:03 | 51.26490 | -5.36208 | 14092 ft | 309 kts | 168° |
| 2026-05-07 19:03 | 51.24395 | -5.35440 | 13712 ft | 308 kts | 168° |
| 2026-05-07 19:03 | 51.22313 | -5.34680 | 13305 ft | 306 kts | 168° |
| 2026-05-07 19:04 | 51.20218 | -5.34202 | 12928 ft | 303 kts | 177° |
| 2026-05-07 19:04 | 51.18123 | -5.34058 | 12575 ft | 300 kts | 179° |
| 2026-05-07 19:04 | 51.16049 | -5.33962 | 12209 ft | 298 kts | 179° |
| 2026-05-07 19:04 | 51.13983 | -5.33879 | 11843 ft | 296 kts | 179° |
| 2026-05-07 19:05 | 51.11935 | -5.33802 | 11487 ft | 293 kts | 179° |
| 2026-05-07 19:05 | 51.09903 | -5.33729 | 11134 ft | 291 kts | 179° |
| 2026-05-07 19:05 | 51.07909 | -5.33660 | 10785 ft | 289 kts | 179° |
| 2026-05-07 19:05 | 51.05881 | -5.33592 | 10425 ft | 287 kts | 179° |
| 2026-05-07 19:06 | 51.03919 | -5.33529 | 10160 ft | 283 kts | 179° |
| 2026-05-07 19:06 | 51.00088 | -5.33410 | 9734 ft | 270 kts | 179° |
| 2026-05-07 19:06 | 50.98211 | -5.33355 | 9425 ft | 268 kts | 179° |
| 2026-05-07 19:07 | 50.96389 | -5.33302 | 9109 ft | 266 kts | 179° |
| 2026-05-07 19:07 | 50.94544 | -5.33250 | 8802 ft | 263 kts | 179° |
| 2026-05-07 19:07 | 50.92697 | -5.33200 | 8492 ft | 262 kts | 179° |
| 2026-05-07 19:07 | 50.90874 | -5.33152 | 8181 ft | 261 kts | 179° |
| 2026-05-07 19:08 | 50.89058 | -5.33106 | 7878 ft | 261 kts | 179° |
| 2026-05-07 19:08 | 50.87270 | -5.33064 | 7584 ft | 260 kts | 179° |
| 2026-05-07 19:08 | 50.85463 | -5.33022 | 7285 ft | 260 kts | 179° |
| 2026-05-07 19:08 | 50.83657 | -5.32983 | 6987 ft | 259 kts | 179° |
| 2026-05-07 19:09 | 50.81851 | -5.32945 | 6691 ft | 259 kts | 179° |
| 2026-05-07 19:09 | 50.80052 | -5.32909 | 6397 ft | 259 kts | 179° |
| 2026-05-07 19:09 | 50.78281 | -5.32877 | 6097 ft | 250 kts | 179° |
| 2026-05-07 19:09 | 50.76573 | -5.32848 | 5827 ft | 244 kts | 179° |
| 2026-05-07 19:10 | 50.74879 | -5.32825 | 5577 ft | 243 kts | 179° |
| 2026-05-07 19:10 | 50.73209 | -5.32813 | 5448 ft | 237 kts | 179° |
| 2026-05-07 19:10 | 50.71574 | -5.32806 | 5327 ft | 232 kts | 179° |
| 2026-05-07 19:10 | 50.70521 | -5.32803 | 5243 ft | 228 kts | 179° |
| 2026-05-07 19:11 | 50.68917 | -5.32801 | 5125 ft | 225 kts | 179° |
| 2026-05-07 19:11 | 50.67369 | -5.32799 | 5013 ft | 225 kts | 179° |
| 2026-05-07 19:11 | 50.65805 | -5.32801 | 4902 ft | 225 kts | 179° |
| 2026-05-07 19:11 | 50.64231 | -5.32804 | 4799 ft | 220 kts | 179° |
| 2026-05-07 19:12 | 50.62739 | -5.32811 | 4698 ft | 208 kts | 179° |
| 2026-05-07 19:12 | 50.61374 | -5.32532 | 4561 ft | 196 kts | 159° |
| 2026-05-07 19:12 | 50.60132 | -5.31763 | 4458 ft | 184 kts | 159° |
| 2026-05-07 19:12 | 50.58965 | -5.31064 | 4341 ft | 175 kts | 159° |
| 2026-05-07 19:13 | 50.57867 | -5.30402 | 4232 ft | 169 kts | 155° |
| 2026-05-07 19:13 | 50.56912 | -5.29311 | 4143 ft | 168 kts | 140° |
| 2026-05-07 19:13 | 50.56038 | -5.28107 | 4059 ft | 165 kts | 139° |
| 2026-05-07 19:13 | 50.55181 | -5.26914 | 3964 ft | 165 kts | 139° |
| 2026-05-07 19:14 | 50.54315 | -5.25708 | 3842 ft | 167 kts | 139° |
| 2026-05-07 19:14 | 50.53478 | -5.24471 | 3708 ft | 167 kts | 129° |
| 2026-05-07 19:14 | 50.52884 | -5.22887 | 3531 ft | 165 kts | 121° |
| 2026-05-07 19:14 | 50.52302 | -5.21345 | 3309 ft | 162 kts | 122° |
| 2026-05-07 19:15 | 50.51733 | -5.19854 | 3097 ft | 161 kts | 122° |
| 2026-05-07 19:15 | 50.51162 | -5.18349 | 2868 ft | 159 kts | 122° |
| 2026-05-07 19:15 | 50.50601 | -5.16865 | 2655 ft | 158 kts | 122° |
| 2026-05-07 19:15 | 50.50035 | -5.15364 | 2452 ft | 157 kts | 122° |
| 2026-05-07 19:16 | 50.49488 | -5.13913 | 2222 ft | 156 kts | 122° |
| 2026-05-07 19:16 | 50.48937 | -5.12452 | 2018 ft | 154 kts | 122° |
| 2026-05-07 19:16 | 50.48395 | -5.11012 | 1814 ft | 152 kts | 122° |
| 2026-05-07 19:16 | 50.47861 | -5.09595 | 1598 ft | 149 kts | 121° |
| 2026-05-07 19:17 | 50.47349 | -5.08235 | 1405 ft | 141 kts | 121° |
| 2026-05-07 19:17 | 50.46872 | -5.06965 | 1203 ft | 130 kts | 122° |
| 2026-05-07 19:17 | 50.46415 | -5.05753 | 1036 ft | 129 kts | 121° |
| 2026-05-07 19:17 | 50.45956 | -5.04542 | 857 ft | 130 kts | 121° |
| 2026-05-07 19:18 | 50.45495 | -5.03321 | 682 ft | 130 kts | 121° |
| 2026-05-07 19:18 | 50.45043 | -5.02113 | 502 ft | 127 kts | 121° |
| 2026-05-07 19:18 | 50.44599 | -5.00924 | 336 ft | 125 kts | 121° |
| 2026-05-07 19:18 | 50.44229 | -4.99935 | 340 ft | 77 kts | 120° |
| 2026-05-07 19:19 | 50.44030 | -4.99406 | 348 ft | 44 kts | 120° |
| 2026-05-07 19:19 | 50.43934 | -4.99165 | 357 ft | 12 kts | 127° |
| 2026-05-07 19:19 | 50.43912 | -4.99060 | 357 ft | 8 kts | 139° |
| 2026-05-07 19:19 | 50.43903 | -4.99094 | 357 ft | 6 kts | 307° |
| 2026-05-07 19:20 | 50.43950 | -4.99197 | 354 ft | 20 kts | 301° |
| 2026-05-07 19:20 | 50.44028 | -4.99400 | 348 ft | 22 kts | 301° |
| 2026-05-07 19:20 | 50.44097 | -4.99501 | 350 ft | 13 kts | 355° |
| 2026-05-07 19:20 | 50.44186 | -4.99488 | 353 ft | 13 kts | 4° |
| 2026-05-07 19:21 | 50.44263 | -4.99494 | 355 ft | 9 kts | 325° |
| 2026-05-07 19:21 | 50.44297 | -4.99576 | 356 ft | 7 kts | 299° |
| 2026-05-07 19:21 | 50.44325 | -4.99654 | 352 ft | 10 kts | 299° |
| 2026-05-07 19:21 | 50.44367 | -4.99771 | 347 ft | 14 kts | 299° |
| 2026-05-07 19:22 | 50.44423 | -4.99917 | 350 ft | 15 kts | 305° |
| 2026-05-07 19:22 | 50.44469 | -5.00033 | 342 ft | 11 kts | 301° |
| 2026-05-07 19:22 | 50.44511 | -5.00144 | 338 ft | 11 kts | 300° |
| 2026-05-07 19:22 | 50.44554 | -5.00260 | 333 ft | 11 kts | 300° |
| 2026-05-07 19:23 | 50.44585 | -5.00343 | 333 ft | 9 kts | 301° |
| 2026-05-07 19:23 | 50.44620 | -5.00432 | 331 ft | 7 kts | 311° |
| 2026-05-07 19:23 | 50.44648 | -5.00424 | 332 ft | 2 kts | 67° |
| 2026-05-07 19:23 | 50.44651 | -5.00401 | 335 ft | 2 kts | 76° |
| 2026-05-07 19:24 | 50.44654 | -5.00380 | 332 ft | 2 kts | 78° |
| 2026-05-07 19:24 | 50.44655 | -5.00369 | 334 ft | 0 kts | 84° |
| 2026-05-07 19:47 | 50.44654 | -5.00382 | 335 ft | 3 kts | 83° |
| 2026-05-07 19:48 | 50.44651 | -5.00412 | 329 ft | 3 kts | 62° |
| 2026-05-07 19:48 | 50.44641 | -5.00430 | 332 ft | 2 kts | 18° |
| 2026-05-07 19:48 | 50.44630 | -5.00436 | 329 ft | 3 kts | 1° |
| 2026-05-07 19:48 | 50.44617 | -5.00429 | 329 ft | 3 kts | 304° |
| 2026-05-07 19:49 | 50.44607 | -5.00402 | 330 ft | 3 kts | 296° |
| 2026-05-07 19:49 | 50.44601 | -5.00383 | 331 ft | 1 kts | 300° |
| 2026-05-07 19:49 | 50.44600 | -5.00383 | 332 ft | 0 kts | 300° |
| 2026-05-07 19:51 | 50.44609 | -5.00405 | 329 ft | 7 kts | 300° |
| 2026-05-07 19:52 | 50.44656 | -5.00531 | 327 ft | 19 kts | 300° |
| 2026-05-07 19:52 | 50.44709 | -5.00670 | 322 ft | 16 kts | 301° |
| 2026-05-07 19:52 | 50.44771 | -5.00833 | 320 ft | 19 kts | 301° |
| 2026-05-07 19:52 | 50.44808 | -5.01007 | 316 ft | 18 kts | 265° |
| 2026-05-07 19:53 | 50.44770 | -5.01115 | 313 ft | 0 kts | 217° |
| 2026-05-07 19:53 | 50.44770 | -5.01116 | 313 ft | 1 kts | 217° |
| 2026-05-07 19:54 | 50.44741 | -5.01150 | 313 ft | 12 kts | 214° |
| 2026-05-07 19:54 | 50.44682 | -5.01137 | 313 ft | 12 kts | 121° |
| 2026-05-07 19:54 | 50.44571 | -5.00844 | 321 ft | 67 kts | 120° |
| 2026-05-07 19:54 | 50.44207 | -4.99880 | 353 ft | 137 kts | 121° |
| 2026-05-07 19:55 | 50.43698 | -4.98536 | 1040 ft | 145 kts | 121° |
| 2026-05-07 19:55 | 50.43189 | -4.97136 | 1983 ft | 145 kts | 114° |
| 2026-05-07 19:55 | 50.43120 | -4.95527 | 2684 ft | 160 kts | 78° |
| 2026-05-07 19:55 | 50.43347 | -4.94354 | 3073 ft | 179 kts | 70° |
| 2026-05-07 19:56 | 50.44557 | -4.92315 | 3908 ft | 206 kts | 28° |
| 2026-05-07 19:56 | 50.46030 | -4.91771 | 4364 ft | 236 kts | 359° |
| 2026-05-07 19:56 | 50.47773 | -4.92018 | 4701 ft | 266 kts | 354° |
| 2026-05-07 19:56 | 50.49654 | -4.92388 | 5594 ft | 276 kts | 353° |
| 2026-05-07 19:57 | 50.51563 | -4.92782 | 6805 ft | 278 kts | 353° |
| 2026-05-07 19:57 | 50.52869 | -4.93052 | 7600 ft | 280 kts | 353° |
| 2026-05-07 19:57 | 50.54795 | -4.93446 | 8717 ft | 286 kts | 352° |
| 2026-05-07 19:57 | 50.56785 | -4.93870 | 9838 ft | 291 kts | 351° |
| 2026-05-07 19:58 | 50.58821 | -4.94398 | 10694 ft | 306 kts | 349° |
| 2026-05-07 19:58 | 50.61011 | -4.95003 | 11251 ft | 329 kts | 349° |
| 2026-05-07 19:58 | 50.63300 | -4.95644 | 12218 ft | 337 kts | 349° |
| 2026-05-07 19:58 | 50.65618 | -4.96289 | 13312 ft | 341 kts | 349° |
| 2026-05-07 19:59 | 50.67971 | -4.96940 | 14312 ft | 346 kts | 349° |
| 2026-05-07 19:59 | 50.70368 | -4.97600 | 15253 ft | 352 kts | 349° |
| 2026-05-07 19:59 | 50.72801 | -4.98267 | 16191 ft | 357 kts | 349° |
| 2026-05-07 19:59 | 50.75268 | -4.98942 | 17127 ft | 363 kts | 349° |
| 2026-05-07 20:00 | 50.77778 | -4.99628 | 18064 ft | 368 kts | 348° |
| 2026-05-07 20:00 | 50.80312 | -5.00321 | 18902 ft | 373 kts | 348° |
| 2026-05-07 20:00 | 50.82881 | -5.01023 | 19724 ft | 378 kts | 348° |
| 2026-05-07 20:00 | 50.85490 | -5.01736 | 20552 ft | 382 kts | 348° |
| 2026-05-07 20:01 | 50.88110 | -5.02453 | 21462 ft | 383 kts | 348° |
| 2026-05-07 20:01 | 50.90726 | -5.03168 | 22555 ft | 379 kts | 348° |
| 2026-05-07 20:01 | 50.93320 | -5.03878 | 23589 ft | 378 kts | 348° |
| 2026-05-07 20:01 | 50.95913 | -5.04589 | 23800 ft | 375 kts | 348° |
| 2026-05-07 20:02 | 50.98474 | -5.05292 | 24007 ft | 379 kts | 348° |
| 2026-05-07 20:02 | 51.01077 | -5.06009 | 24013 ft | 381 kts | 348° |
| 2026-05-07 20:02 | 51.03673 | -5.06724 | 24022 ft | 378 kts | 348° |
| 2026-05-07 20:02 | 51.06266 | -5.07439 | 24027 ft | 377 kts | 348° |
| 2026-05-07 20:03 | 51.08848 | -5.08151 | 24027 ft | 377 kts | 348° |
| 2026-05-07 20:03 | 51.11435 | -5.08866 | 24027 ft | 377 kts | 348° |
| 2026-05-07 20:03 | 51.14019 | -5.09581 | 24025 ft | 377 kts | 348° |
| 2026-05-07 20:03 | 51.16612 | -5.10300 | 24025 ft | 377 kts | 348° |
| 2026-05-07 20:04 | 51.19197 | -5.11017 | 24023 ft | 377 kts | 348° |
| 2026-05-07 20:04 | 51.21781 | -5.11734 | 24023 ft | 378 kts | 348° |
| 2026-05-07 20:04 | 51.24364 | -5.12452 | 24035 ft | 378 kts | 348° |
| 2026-05-07 20:04 | 51.26956 | -5.13173 | 24025 ft | 378 kts | 348° |
| 2026-05-07 20:05 | 51.29546 | -5.13895 | 24022 ft | 378 kts | 348° |
| 2026-05-07 20:05 | 51.32133 | -5.14616 | 24021 ft | 378 kts | 348° |
| 2026-05-07 20:05 | 51.34728 | -5.15341 | 24022 ft | 378 kts | 348° |
| 2026-05-07 20:05 | 51.37323 | -5.16066 | 24022 ft | 378 kts | 348° |
| 2026-05-07 20:06 | 51.39911 | -5.16790 | 24022 ft | 378 kts | 348° |
| 2026-05-07 20:06 | 51.42502 | -5.17516 | 24021 ft | 378 kts | 348° |
| 2026-05-07 20:06 | 51.45055 | -5.18232 | 24021 ft | 378 kts | 348° |
| 2026-05-07 20:06 | 51.47688 | -5.18972 | 24028 ft | 378 kts | 348° |
| 2026-05-07 20:07 | 51.50276 | -5.19700 | 24024 ft | 378 kts | 348° |
| 2026-05-07 20:07 | 51.52862 | -5.20428 | 24021 ft | 377 kts | 348° |
| 2026-05-07 20:07 | 51.55448 | -5.21156 | 24021 ft | 377 kts | 348° |
| 2026-05-07 20:07 | 51.57999 | -5.21876 | 24021 ft | 377 kts | 348° |
| 2026-05-07 20:08 | 51.60572 | -5.22603 | 24022 ft | 377 kts | 348° |
| 2026-05-07 20:08 | 51.63193 | -5.23344 | 24022 ft | 377 kts | 348° |
| 2026-05-07 20:08 | 51.65744 | -5.24066 | 24022 ft | 377 kts | 348° |
| 2026-05-07 20:08 | 51.68350 | -5.24805 | 24022 ft | 377 kts | 348° |
| 2026-05-07 20:09 | 51.70910 | -5.25531 | 24025 ft | 377 kts | 348° |
| 2026-05-07 20:09 | 51.73485 | -5.26262 | 24022 ft | 377 kts | 348° |
| 2026-05-07 20:09 | 51.76069 | -5.26997 | 24021 ft | 377 kts | 348° |
| 2026-05-07 20:10 | 51.81230 | -5.28468 | 24022 ft | 377 kts | 348° |
| 2026-05-07 20:10 | 51.83810 | -5.29204 | 24022 ft | 377 kts | 348° |
| 2026-05-07 20:10 | 51.86391 | -5.29942 | 24022 ft | 377 kts | 348° |